KBNW/BNW METAR and TAF weather

Enter ICAO airport designator
Station Type Date Time Source
KBNW METAR 2018/07/21 11:35 UTC NOAA

KBNW 211135Z AUTO 32008KT 10SM CLR 18/17 A2997 RMK AO2


Station Type Date Time Source
KBNW Decoded METAR 2018/07/21 11:35 UTC NOAA

Boone Municipal, IA, United States (KBNW) 42-03N 093-51W
Jul 21, 2018 - 07:35 AM EDT / 2018.07.21 1135 UTC
Wind: from the NW (320 degrees) at 9 MPH (8 KT):0
Visibility: 10 mile(s):0
Sky conditions: clear
Temperature: 64 F (18 C)
Dew Point: 62 F (17 C)
Relative Humidity: 93%
Pressure (altimeter): 29.97 in. Hg (1014 hPa)
ob: KBNW 211135Z AUTO 32008KT 10SM CLR 18/17 A2997 RMK AO2
cycle: 11

Station Type Date Time Source
KBNW TAF UTC NOAA

Error!


Example: see airport list